Portada
METAR-TAF:

METAR-TAF

Aeroports :

Àqaba, Jordània

latitud: 29-38N, longitud: 035-01E, altitud: 53 m

Observació

L'informe es va fer fa 53 minuts, a les 21:00 UTC
Vent 16 kt del Nord
Temperatura 23°C
Humitat 38%
Pressió 1015 hPa
Visibilitat: 7000 m

METAR: OJAQ 292100Z AUTO 36016KT 7000 NSC 23/08 Q1015 NOSIG

Hora: 00:53 (21:53 UTC)

Pronòstic

L'informe es va fer fa 5 hores i 18 minuts, a les 16:35 UTC
Pronòstic vàlid del 29 a les 18 UTC al 30 a les 24 UTC
Vent 12 kt del Nord
Visibilitat: 7000 m

TAF: OJAQ 291635Z 2918/3024 36012KT 7000 NSC

Observacions i pronòstics meteorològics de més de 4000 aeroports (METAR i TAF).

Les estacions disponibles són els punts grocs i vermells al mapa.

Posi el ratolí al punt desitjat per veure el nom de l'estació.

Feu clic per veure les observacions i els pronòstics meteorològics.

Per canviar el mapa: feu clic els botons verds amb una creu de color negre per apropar; al botó verd amb un guió per allunyar la imatge; o en les fletxes verdes per a mapes adjacents.


METAR-TAF: